createdAt,value
2019-04-25T00:00:47.420Z,20.30
2019-04-25T00:03:14.521Z,21.17
2019-04-25T00:05:40.694Z,23.87
2019-04-25T00:08:07.481Z,18.33
2019-04-25T00:10:32.830Z,22.10
2019-04-25T00:12:58.181Z,25.57
2019-04-25T00:15:23.750Z,24.23
2019-04-25T00:17:49.088Z,25.73
2019-04-25T00:20:14.681Z,24.30
2019-04-25T00:22:53.418Z,22.40
2019-04-25T00:25:36.825Z,28.07
2019-04-25T00:28:03.373Z,21.23
2019-04-25T00:30:31.235Z,21.30
2019-04-25T00:32:56.753Z,21.97
2019-04-25T00:35:22.421Z,23.53
2019-04-25T00:37:47.821Z,24.77
2019-04-25T00:40:13.557Z,22.47
2019-04-25T00:42:39.147Z,22.03
2019-04-25T00:45:05.353Z,21.50
2019-04-25T00:47:31.579Z,20.80
2019-04-25T00:49:57.003Z,24.23
2019-04-25T00:52:22.782Z,22.13
2019-04-25T00:54:48.357Z,24.80
2019-04-25T00:57:14.425Z,27.77
2019-04-25T00:59:54.449Z,27.27
2019-04-25T01:02:53.358Z,28.50
2019-04-25T01:05:18.732Z,31.63
2019-04-25T01:07:44.390Z,29.37
2019-04-25T01:10:11.894Z,29.47
2019-04-25T01:12:37.325Z,28.20
2019-04-25T01:15:02.877Z,26.50
2019-04-25T01:17:28.546Z,30.63
2019-04-25T01:19:56.978Z,27.10
2019-04-25T01:22:21.089Z,29.40
2019-04-25T01:24:47.234Z,23.87
2019-04-25T01:27:13.492Z,25.27
2019-04-25T01:29:39.073Z,28.10
2019-04-25T01:32:06.489Z,32.97
2019-04-25T01:34:40.120Z,27.73
2019-04-25T01:37:30.408Z,32.97
2019-04-25T01:40:20.710Z,25.53
2019-04-25T01:43:08.082Z,24.47
2019-04-25T01:45:34.553Z,26.87
2019-04-25T01:48:00.033Z,25.50
2019-04-25T01:50:25.392Z,26.73
2019-04-25T01:52:50.836Z,29.00
2019-04-25T01:55:16.317Z,29.77
2019-04-25T01:57:41.670Z,27.67
2019-04-25T02:00:07.391Z,28.70
2019-04-25T02:02:33.584Z,28.90
2019-04-25T02:04:59.973Z,25.97
2019-04-25T02:07:26.517Z,26.90
2019-04-25T02:09:53.950Z,28.10
2019-04-25T02:12:29.873Z,27.77
2019-04-25T02:14:56.006Z,35.13
2019-04-25T02:17:24.077Z,27.70
2019-04-25T02:19:49.589Z,31.33
2019-04-25T02:22:14.982Z,34.80
2019-04-25T02:24:40.481Z,32.50
2019-04-25T02:27:05.839Z,33.60
2019-04-25T02:29:31.394Z,29.33
2019-04-25T02:32:00.496Z,25.80
2019-04-25T02:34:25.040Z,29.10
2019-04-25T02:36:50.754Z,31.17
2019-04-25T02:39:18.024Z,29.23
2019-04-25T02:41:44.484Z,28.40
2019-04-25T02:44:10.251Z,27.93
2019-04-25T02:46:59.190Z,26.77
2019-04-25T02:49:46.380Z,33.47
2019-04-25T02:52:18.169Z,26.57
2019-04-25T02:54:44.939Z,28.90
2019-04-25T02:57:10.395Z,30.70
2019-04-25T02:59:36.954Z,31.00
2019-04-25T03:02:05.250Z,30.50
2019-04-25T03:04:29.906Z,30.57
2019-04-25T03:06:55.626Z,34.43
2019-04-25T03:09:22.303Z,28.00
2019-04-25T03:11:47.955Z,25.47
2019-04-25T03:14:14.724Z,27.70
2019-04-25T03:16:40.255Z,25.20
2019-04-25T03:19:26.383Z,29.33
2019-04-25T03:21:55.033Z,23.43
2019-04-25T03:24:20.243Z,21.80
2019-04-25T03:26:45.903Z,21.87
2019-04-25T03:29:11.299Z,25.13
2019-04-25T03:31:36.686Z,22.87
2019-04-25T03:34:05.523Z,22.50
2019-04-25T03:36:29.155Z,21.73
2019-04-25T03:38:54.536Z,23.03
2019-04-25T03:41:19.890Z,21.17
2019-04-25T03:43:45.565Z,18.40
2019-04-25T03:46:10.927Z,17.93
2019-04-25T03:48:37.203Z,22.00
2019-04-25T03:51:04.579Z,19.33
2019-04-25T03:53:29.634Z,16.00
2019-04-25T03:55:55.031Z,18.50
2019-04-25T03:58:20.373Z,17.30
2019-04-25T04:00:45.770Z,14.47
2019-04-25T04:03:11.456Z,18.03
2019-04-25T04:05:36.947Z,13.83
2019-04-25T04:08:04.259Z,14.63
2019-04-25T04:10:29.292Z,15.73
2019-04-25T04:12:54.661Z,13.67
2019-04-25T04:15:20.406Z,13.50
2019-04-25T04:17:50.478Z,18.20
2019-04-25T04:20:40.555Z,13.80
2019-04-25T04:23:13.254Z,13.50
2019-04-25T04:25:39.178Z,14.77
2019-04-25T04:28:06.105Z,13.77
2019-04-25T04:30:31.592Z,11.37
2019-04-25T04:32:57.442Z,11.47
2019-04-25T04:35:23.513Z,13.03
2019-04-25T04:37:49.066Z,14.93
2019-04-25T04:40:17.239Z,9.23
2019-04-25T04:42:43.507Z,11.27
2019-04-25T04:45:10.234Z,9.40
2019-04-25T04:47:35.730Z,8.47
2019-04-25T04:50:01.091Z,11.20
2019-04-25T04:52:26.462Z,8.10
2019-04-25T04:55:03.685Z,10.73
2019-04-25T04:57:29.095Z,10.63
2019-04-25T04:59:45.838Z,6.37
2019-04-25T05:02:19.189Z,12.90
2019-04-25T05:05:10.623Z,9.53
2019-04-25T05:07:43.945Z,8.10
2019-04-25T05:10:10.464Z,12.27
2019-04-25T05:12:36.659Z,7.77
2019-04-25T05:15:03.692Z,8.03
2019-04-25T05:17:29.138Z,9.97
2019-04-25T05:19:54.511Z,8.90
2019-04-25T05:22:20.414Z,7.30
2019-04-25T05:24:45.846Z,15.93
2019-04-25T05:27:11.222Z,7.60
2019-04-25T05:29:37.272Z,10.23
2019-04-25T05:32:04.145Z,7.70
2019-04-25T05:34:29.689Z,10.50
2019-04-25T05:36:55.042Z,10.50
2019-04-25T05:39:20.467Z,6.57
2019-04-25T05:42:04.311Z,8.73
2019-04-25T05:44:30.082Z,7.77
2019-04-25T05:46:55.434Z,5.50
2019-04-25T05:49:21.858Z,4.77
2019-04-25T05:51:47.226Z,7.20
2019-04-25T05:54:13.988Z,3.37
2019-04-25T05:56:43.799Z,4.73
2019-04-25T05:59:09.239Z,2.73
2019-04-25T06:01:35.921Z,5.83
2019-04-25T06:04:01.488Z,5.93
2019-04-25T06:06:26.839Z,4.30
2019-04-25T06:08:58.712Z,2.77
2019-04-25T06:11:43.764Z,3.30
2019-04-25T06:14:11.410Z,7.63
2019-04-25T06:16:38.098Z,3.93
2019-04-25T06:19:18.362Z,2.73
2019-04-25T06:21:40.483Z,6.50
2019-04-25T06:24:20.653Z,3.00
2019-04-25T06:27:18.177Z,2.17
2019-04-25T06:29:57.324Z,3.77
2019-04-25T06:32:14.124Z,2.73
2019-04-25T06:34:39.179Z,2.40
2019-04-25T06:37:06.226Z,3.47
2019-04-25T06:39:32.233Z,2.67
2019-04-25T06:41:57.810Z,1.73
2019-04-25T06:44:34.693Z,1.57
2019-04-25T06:47:11.019Z,1.80
2019-04-25T06:49:37.751Z,2.13
2019-04-25T06:52:04.196Z,6.33
2019-04-25T06:54:29.694Z,1.73
2019-04-25T06:56:56.122Z,2.20
2019-04-25T06:59:22.968Z,1.98
2019-04-25T07:01:48.593Z,3.25
2019-04-25T07:04:14.297Z,5.78
2019-04-25T07:06:39.678Z,1.02
2019-04-25T07:09:07.542Z,1.92
2019-04-25T07:11:34.845Z,3.47
2019-04-25T07:14:00.303Z,2.60
2019-04-25T07:16:26.060Z,0.95
2019-04-25T07:18:51.563Z,2.10
2019-04-25T07:21:16.922Z,1.90
2019-04-25T07:23:43.210Z,1.87
2019-04-25T07:26:16.447Z,1.17
2019-04-25T07:29:00.225Z,0.75
2019-04-25T07:31:44.213Z,1.85
2019-04-25T07:34:25.283Z,0.98
2019-04-25T07:36:51.230Z,3.77
2019-04-25T07:39:16.933Z,2.05
2019-04-25T07:41:44.062Z,1.60
2019-04-25T07:44:09.659Z,2.05
2019-04-25T07:46:38.597Z,1.22
2019-04-25T07:49:03.469Z,2.12
2019-04-25T07:51:29.155Z,0.88
2019-04-25T07:53:54.575Z,2.33
2019-04-25T07:56:19.932Z,1.85
2019-04-25T07:58:50.457Z,5.25
2019-04-25T08:01:14.319Z,1.45
2019-04-25T08:03:39.762Z,3.52
2019-04-25T08:06:05.601Z,0.82
2019-04-25T08:08:31.899Z,1.95
2019-04-25T08:11:04.046Z,1.65
2019-04-25T08:13:34.246Z,4.37
2019-04-25T08:16:01.202Z,2.35
2019-04-25T08:18:26.882Z,2.20
2019-04-25T08:20:53.358Z,3.47
2019-04-25T08:23:19.030Z,2.67
2019-04-25T08:25:44.583Z,2.10
2019-04-25T08:28:10.046Z,2.00
2019-04-25T08:30:36.641Z,2.80
2019-04-25T08:33:03.850Z,2.75
2019-04-25T08:35:30.562Z,3.85
2019-04-25T08:37:55.915Z,2.65
2019-04-25T08:40:23.670Z,2.47
2019-04-25T08:42:48.961Z,13.20
2019-04-25T08:45:16.210Z,3.35
2019-04-25T08:47:41.899Z,1.87
2019-04-25T08:50:31.122Z,4.92
2019-04-25T08:52:54.443Z,4.03
2019-04-25T08:55:38.230Z,4.35
2019-04-25T08:58:23.638Z,2.45
2019-04-25T09:01:11.245Z,3.30
2019-04-25T09:03:45.494Z,14.85
2019-04-25T09:06:13.211Z,3.58
2019-04-25T09:08:39.360Z,3.10
2019-04-25T09:11:04.805Z,2.33
2019-04-25T09:13:30.174Z,1.65
2019-04-25T09:15:55.962Z,2.65
2019-04-25T09:18:23.987Z,2.25
2019-04-25T09:20:49.614Z,1.65
2019-04-25T09:23:14.999Z,2.33
2019-04-25T09:25:40.695Z,0.98
2019-04-25T09:28:07.411Z,7.58
2019-04-25T09:30:34.934Z,3.00
2019-04-25T09:33:01.044Z,3.27
2019-04-25T09:35:26.474Z,0.78
2019-04-25T09:37:53.478Z,2.92
2019-04-25T09:40:19.434Z,2.83
2019-04-25T09:42:46.239Z,3.20
2019-04-25T09:45:35.964Z,4.92
2019-04-25T09:48:08.211Z,1.72
2019-04-25T09:50:46.323Z,4.33
2019-04-25T09:53:21.873Z,4.50
2019-04-25T09:56:04.165Z,2.80
2019-04-25T09:58:47.006Z,5.22
2019-04-25T10:01:13.871Z,3.87
2019-04-25T10:03:39.643Z,4.00
2019-04-25T10:06:05.305Z,1.92
2019-04-25T10:08:30.782Z,3.20
2019-04-25T10:10:56.142Z,2.10
2019-04-25T10:13:23.492Z,1.62
2019-04-25T10:16:06.759Z,34.43
2019-04-25T10:18:33.433Z,1.80
2019-04-25T10:21:00.057Z,1.40
2019-04-25T10:23:25.410Z,1.00
2019-04-25T10:25:51.128Z,11.15
2019-04-25T10:28:16.535Z,6.25
2019-04-25T10:30:42.854Z,2.47
2019-04-25T10:33:08.374Z,2.02
2019-04-25T10:35:46.442Z,1.80
2019-04-25T10:38:00.935Z,2.17
2019-04-25T10:40:27.362Z,1.77
2019-04-25T10:42:53.369Z,1.22
2019-04-25T10:45:23.219Z,3.00
2019-04-25T10:47:46.684Z,1.90
2019-04-25T10:50:13.506Z,1.22
2019-04-25T10:52:39.744Z,2.72
2019-04-25T10:55:05.658Z,1.67
2019-04-25T10:57:31.086Z,3.33
2019-04-25T11:00:06.446Z,1.72
2019-04-25T11:02:25.059Z,3.08
2019-04-25T11:04:55.694Z,1.98
2019-04-25T11:07:21.067Z,1.87
2019-04-25T11:09:47.141Z,2.40
2019-04-25T11:12:14.898Z,1.77
2019-04-25T11:14:40.940Z,3.22
2019-04-25T11:17:07.207Z,3.10
2019-04-25T11:19:34.333Z,0.90
2019-04-25T11:21:59.640Z,1.60
2019-04-25T11:24:25.131Z,2.25
2019-04-25T11:26:51.491Z,2.40
2019-04-25T11:29:18.233Z,0.80
2019-04-25T11:31:47.420Z,2.25
2019-04-25T11:34:13.933Z,3.55
2019-04-25T11:36:40.174Z,2.95
2019-04-25T11:39:34.144Z,2.65
2019-04-25T11:41:59.812Z,4.08
2019-04-25T11:44:25.269Z,3.65
2019-04-25T11:46:50.686Z,3.33
2019-04-25T11:49:18.654Z,3.98
2019-04-25T11:51:45.101Z,4.78
2019-04-25T11:54:11.039Z,3.22
2019-04-25T11:56:36.385Z,3.60
2019-04-25T11:59:01.774Z,2.85
2019-04-25T12:01:27.442Z,3.85
2019-04-25T12:03:52.841Z,1.05
2019-04-25T12:06:18.283Z,4.42
2019-04-25T12:08:46.467Z,2.42
2019-04-25T12:11:10.811Z,3.02
2019-04-25T12:13:36.149Z,2.15
2019-04-25T12:16:01.507Z,1.67
2019-04-25T12:18:26.982Z,1.77
2019-04-25T12:20:55.447Z,0.95
2019-04-25T12:23:20.442Z,2.45
2019-04-25T12:25:46.393Z,3.17
2019-04-25T12:28:14.143Z,2.15
2019-04-25T12:30:40.426Z,2.10
2019-04-25T12:33:18.080Z,1.32
2019-04-25T12:35:33.378Z,2.30
2019-04-25T12:37:58.841Z,3.58
2019-04-25T12:40:24.378Z,1.70
2019-04-25T12:42:49.910Z,3.05
2019-04-25T12:45:31.559Z,2.25
2019-04-25T12:47:59.160Z,2.22
2019-04-25T12:50:24.751Z,2.17
2019-04-25T12:52:50.619Z,2.62
2019-04-25T12:55:16.755Z,2.22
2019-04-25T12:57:42.215Z,1.05
2019-04-25T13:00:11.071Z,2.27
2019-04-25T13:02:37.109Z,3.58
2019-04-25T13:05:04.347Z,2.65
2019-04-25T13:07:30.510Z,2.50
2019-04-25T13:09:55.889Z,1.07
2019-04-25T13:12:23.341Z,2.30
2019-04-25T13:14:48.835Z,5.95
2019-04-25T13:17:14.570Z,3.17
2019-04-25T13:19:39.922Z,1.98
2019-04-25T13:22:06.735Z,1.17
2019-04-25T13:24:32.103Z,1.67
2019-04-25T13:27:03.654Z,2.10
2019-04-25T13:29:48.558Z,2.42
2019-04-25T13:32:28.226Z,0.72
2019-04-25T13:34:54.651Z,4.72
2019-04-25T13:37:34.181Z,3.83
2019-04-25T13:40:00.564Z,3.72
2019-04-25T13:42:26.038Z,0.70
2019-04-25T13:44:51.443Z,2.72
2019-04-25T13:47:16.895Z,1.22
2019-04-25T13:49:42.363Z,0.75
2019-04-25T13:52:09.518Z,1.57
2019-04-25T13:54:35.081Z,3.02
2019-04-25T13:57:00.588Z,1.75
2019-04-25T13:59:26.246Z,3.35
2019-04-25T14:01:54.142Z,1.32
2019-04-25T14:04:19.602Z,1.80
2019-04-25T14:06:44.956Z,3.90
2019-04-25T14:09:13.945Z,4.37
2019-04-25T14:11:40.667Z,1.05
2019-04-25T14:14:06.166Z,3.17
2019-04-25T14:16:51.544Z,1.62
2019-04-25T14:19:45.142Z,2.90
2019-04-25T14:22:10.593Z,3.20
2019-04-25T14:24:36.005Z,2.12
2019-04-25T14:27:04.692Z,3.35
2019-04-25T14:29:30.957Z,5.30
2019-04-25T14:31:57.460Z,0.53
2019-04-25T14:34:27.781Z,0.88
2019-04-25T14:36:54.208Z,1.40
2019-04-25T14:39:19.854Z,1.62
2019-04-25T14:41:45.214Z,1.95
2019-04-25T14:44:10.873Z,0.80
2019-04-25T14:46:36.371Z,1.27
2019-04-25T14:49:01.733Z,3.12
2019-04-25T14:51:28.118Z,1.60
2019-04-25T14:53:53.557Z,0.85
2019-04-25T14:56:28.720Z,1.95
2019-04-25T14:58:54.667Z,2.42
2019-04-25T15:01:23.986Z,2.00
2019-04-25T15:03:49.458Z,1.50
2019-04-25T15:06:14.806Z,5.17
2019-04-25T15:08:41.354Z,2.40
2019-04-25T15:11:07.114Z,1.57
2019-04-25T15:13:32.476Z,3.90
2019-04-25T15:15:57.846Z,2.55
2019-04-25T15:18:24.824Z,2.30
2019-04-25T15:20:50.386Z,1.25
2019-04-25T15:23:16.334Z,0.90
2019-04-25T15:25:41.715Z,1.90
2019-04-25T15:28:07.099Z,1.98
2019-04-25T15:30:34.315Z,0.78
2019-04-25T15:33:00.050Z,1.92
2019-04-25T15:35:30.614Z,1.07
2019-04-25T15:38:02.789Z,2.98
2019-04-25T15:40:34.416Z,2.55
2019-04-25T15:43:17.447Z,3.22
2019-04-25T15:46:11.071Z,4.05
2019-04-25T15:48:37.325Z,1.95
2019-04-25T15:51:02.818Z,1.82
2019-04-25T15:53:28.606Z,1.80
2019-04-25T15:55:54.922Z,0.90
2019-04-25T15:58:20.370Z,0.60
2019-04-25T16:00:45.762Z,1.47
2019-04-25T16:03:11.807Z,2.77
2019-04-25T16:05:38.313Z,1.42
2019-04-25T16:08:06.198Z,3.42
2019-04-25T16:10:32.681Z,2.35
2019-04-25T16:12:58.053Z,2.25
2019-04-25T16:15:23.404Z,2.33
2019-04-25T16:17:48.799Z,4.78
2019-04-25T16:20:14.208Z,1.50
2019-04-25T16:22:39.516Z,2.67
2019-04-25T16:25:05.405Z,1.42
2019-04-25T16:27:30.746Z,3.37
2019-04-25T16:29:56.110Z,6.55
2019-04-25T16:32:23.075Z,3.08
2019-04-25T16:34:48.430Z,4.40
2019-04-25T16:37:13.854Z,2.60
2019-04-25T16:39:40.500Z,2.98
2019-04-25T16:42:05.878Z,2.45
2019-04-25T16:44:32.331Z,1.98
2019-04-25T16:46:57.712Z,1.50
2019-04-25T16:49:23.118Z,2.67
2019-04-25T16:51:48.467Z,1.40
2019-04-25T16:54:15.494Z,3.05
2019-04-25T16:56:41.702Z,1.72
2019-04-25T16:59:07.281Z,3.37
2019-04-25T17:01:33.691Z,1.65
2019-04-25T17:03:59.275Z,2.70
2019-04-25T17:06:24.791Z,5.60
2019-04-25T17:08:50.175Z,2.77
2019-04-25T17:11:15.518Z,1.85
2019-04-25T17:13:53.250Z,4.10
2019-04-25T17:16:36.839Z,3.65
2019-04-25T17:19:16.886Z,4.58
2019-04-25T17:21:43.000Z,1.65
2019-04-25T17:24:08.524Z,3.62
2019-04-25T17:26:34.755Z,1.30
2019-04-25T17:29:02.772Z,3.10
2019-04-25T17:31:46.035Z,2.98
2019-04-25T17:34:24.540Z,4.12
2019-04-25T17:37:01.117Z,2.85
2019-04-25T17:39:40.286Z,2.67
2019-04-25T17:42:05.875Z,5.28
2019-04-25T17:44:31.646Z,6.42
2019-04-25T17:47:06.147Z,4.10
2019-04-25T17:49:25.063Z,3.87
2019-04-25T17:51:50.408Z,6.90
2019-04-25T17:54:18.371Z,2.83
2019-04-25T17:56:43.106Z,5.08
2019-04-25T17:59:08.458Z,6.37
2019-04-25T18:01:34.117Z,7.22
2019-04-25T18:04:00.926Z,8.08
2019-04-25T18:06:26.641Z,9.90
2019-04-25T18:08:52.238Z,8.68
2019-04-25T18:11:17.578Z,3.75
2019-04-25T18:13:42.935Z,4.15
2019-04-25T18:16:17.107Z,5.15
2019-04-25T18:18:54.253Z,5.65
2019-04-25T18:21:19.626Z,24.70
2019-04-25T18:24:08.994Z,8.35
2019-04-25T18:26:56.810Z,9.88
2019-04-25T18:29:22.418Z,60.38
2019-04-25T18:31:48.474Z,27.35
2019-04-25T18:34:20.954Z,34.88
2019-04-25T18:37:20.378Z,33.02
2019-04-25T18:40:00.706Z,19.42
2019-04-25T18:42:38.457Z,21.85
2019-04-25T18:45:05.862Z,8.18
2019-04-25T18:47:32.769Z,52.38
2019-04-25T18:49:59.329Z,8.70
2019-04-25T18:52:42.941Z,5.40
2019-04-25T18:55:15.874Z,8.93
2019-04-25T18:57:49.075Z,9.37
2019-04-25T19:00:45.841Z,4.47
2019-04-25T19:03:33.178Z,3.03
2019-04-25T19:06:04.141Z,7.53
2019-04-25T19:08:29.559Z,4.53
2019-04-25T19:10:55.005Z,4.83
2019-04-25T19:13:20.408Z,5.47
2019-04-25T19:15:45.820Z,5.13
2019-04-25T19:18:11.163Z,12.90
2019-04-25T19:20:36.667Z,4.67
2019-04-25T19:23:02.157Z,4.30
2019-04-25T19:25:27.510Z,5.37
2019-04-25T19:27:52.954Z,3.20
2019-04-25T19:30:19.594Z,5.17
2019-04-25T19:32:45.033Z,5.73
2019-04-25T19:35:10.823Z,5.13
2019-04-25T19:37:36.201Z,6.37
2019-04-25T19:40:19.467Z,6.77
2019-04-25T19:42:48.865Z,1.67
2019-04-25T19:45:14.318Z,5.00
2019-04-25T19:47:41.363Z,4.03
2019-04-25T19:50:06.913Z,2.50
2019-04-25T19:52:32.318Z,4.20
2019-04-25T19:54:57.671Z,1.97
2019-04-25T19:57:23.009Z,3.83
2019-04-25T19:59:50.640Z,2.57
2019-04-25T20:02:25.991Z,3.47
2019-04-25T20:05:09.174Z,4.40
2019-04-25T20:07:42.549Z,7.77
2019-04-25T20:10:21.158Z,4.97
2019-04-25T20:12:50.592Z,6.97
2019-04-25T20:15:15.705Z,4.87
2019-04-25T20:17:41.135Z,3.10
2019-04-25T20:20:07.154Z,8.87
2019-04-25T20:22:32.570Z,3.40
2019-04-25T20:24:58.257Z,4.83
2019-04-25T20:27:23.656Z,5.30
2019-04-25T20:29:49.006Z,3.37
2019-04-25T20:32:14.347Z,4.00
2019-04-25T20:34:39.714Z,3.90
2019-04-25T20:37:05.062Z,5.13
2019-04-25T20:39:30.489Z,3.80
2019-04-25T20:41:55.981Z,4.60
2019-04-25T20:44:21.327Z,5.57
2019-04-25T20:46:46.750Z,5.30
2019-04-25T20:49:12.275Z,4.60
2019-04-25T20:51:37.623Z,4.03
2019-04-25T20:54:02.979Z,4.07
2019-04-25T20:56:28.353Z,3.87
2019-04-25T20:58:53.702Z,5.03
2019-04-25T21:01:19.451Z,2.73
2019-04-25T21:03:44.782Z,3.67
2019-04-25T21:06:16.418Z,2.87
2019-04-25T21:08:41.795Z,4.87
2019-04-25T21:11:07.133Z,3.67
2019-04-25T21:13:57.491Z,4.13
2019-04-25T21:16:45.878Z,3.53
2019-04-25T21:19:13.313Z,2.87
2019-04-25T21:21:38.662Z,4.57
2019-04-25T21:24:04.011Z,5.70
2019-04-25T21:26:29.391Z,3.87
2019-04-25T21:28:54.749Z,4.77
2019-04-25T21:31:20.215Z,3.33
2019-04-25T21:33:45.628Z,6.07
2019-04-25T21:36:11.072Z,6.13
2019-04-25T21:38:36.746Z,7.23
2019-04-25T21:41:20.654Z,7.37
2019-04-25T21:43:50.369Z,5.23
2019-04-25T21:46:15.919Z,3.83
2019-04-25T21:48:41.570Z,5.80
2019-04-25T21:51:24.731Z,7.23
2019-04-25T21:53:50.102Z,6.13
2019-04-25T21:56:15.679Z,5.60
2019-04-25T21:58:41.090Z,4.23
2019-04-25T22:01:14.595Z,4.50
2019-04-25T22:03:40.123Z,4.70
2019-04-25T22:06:05.965Z,2.93
2019-04-25T22:08:31.533Z,5.53
2019-04-25T22:10:57.288Z,5.67
2019-04-25T22:13:22.717Z,3.97
2019-04-25T22:15:48.482Z,4.87
2019-04-25T22:18:14.237Z,2.17
2019-04-25T22:20:39.949Z,4.23
2019-04-25T22:23:05.756Z,3.77
2019-04-25T22:25:32.430Z,6.47
2019-04-25T22:27:58.717Z,3.00
2019-04-25T22:30:24.341Z,4.27
2019-04-25T22:33:15.186Z,6.63
2019-04-25T22:35:48.038Z,2.67
2019-04-25T22:38:13.713Z,3.57
2019-04-25T22:40:39.065Z,3.50
2019-04-25T22:43:06.521Z,2.20
2019-04-25T22:45:32.470Z,2.47
2019-04-25T22:47:58.174Z,3.90
2019-04-25T22:50:23.918Z,3.27
2019-04-25T22:52:49.253Z,2.90
2019-04-25T22:55:14.755Z,3.47
2019-04-25T22:57:40.418Z,3.60
2019-04-25T23:00:08.910Z,3.67
2019-04-25T23:02:45.409Z,3.63
2019-04-25T23:05:23.445Z,2.97
2019-04-25T23:07:48.809Z,3.23
2019-04-25T23:10:14.767Z,4.40
2019-04-25T23:12:40.154Z,3.97
2019-04-25T23:15:06.730Z,3.20
2019-04-25T23:17:32.235Z,4.50
2019-04-25T23:19:57.874Z,3.63
2019-04-25T23:22:23.239Z,3.60
2019-04-25T23:24:54.494Z,5.60
2019-04-25T23:27:39.032Z,4.80
2019-04-25T23:30:06.437Z,3.43
2019-04-25T23:32:32.086Z,3.10
2019-04-25T23:34:58.519Z,3.13
2019-04-25T23:37:23.950Z,5.93
2019-04-25T23:39:49.298Z,2.73
2019-04-25T23:42:15.581Z,3.07
2019-04-25T23:44:41.207Z,3.00
2019-04-25T23:47:07.260Z,4.70
2019-04-25T23:49:33.803Z,2.37
2019-04-25T23:51:59.518Z,3.93
2019-04-25T23:54:24.907Z,2.87
2019-04-25T23:56:50.261Z,3.30
2019-04-25T23:59:15.781Z,4.10
